Weather History for Ludington, MI

Change the Weather History Date:

Thursday, February 21, 2013

  Actual Average Record
Temperature  
Mean Temperature 22 °F -  
Max Temperature 25 °F 36 °F 48 °F (1992)
Min Temperature 20 °F 21 °F -6 °F (1977)
Degree Days  
Heating Degree Days 42    
Moisture  
Dew Point 15 °F    
Average Humidity 74    
Maximum Humidity 79    
Minimum Humidity 66    
Precipitation  
Precipitation 0.00 in - - ()
Sea Level Pressure  
Sea Level Pressure 30.31 in    
Wind  
Wind Speed 8 mph (NE)    
Max Wind Speed 17 mph    
Max Gust Speed 24 mph    
Visibility 10 miles    
Events      
Averages and records for this station are not official NWS values.
T = Trace of Precipitation, MM = Missing Value Source: NWS Daily Summary

Daily Weather History Graph

Daily Weather History Graph

Search for Another Location

Airport:

Trip Planner

Search our weather history database for the weather conditions in past years. The results will help you decide how hot, cold, wet, or windy it might be!

Date:

Astronomy

Feb. 21, 2013 Rise Set
Actual Time 7:35 AM EST 6:23 PM EST
Civil Twilight 7:05 AM EST 6:53 PM EST
Nautical Twilight 6:32 AM EST 7:26 PM EST
Astronomical Twilight 5:59 AM EST 8:00 PM EST
Moon 2:32 PM EST (2/21) 4:45 AM EST (2/21)
Length of Visible Light 11h 47m
Length of Day
10h 48m
Waxing Gibbous, 83% of the Moon is Illuminated
Feb 21
Waxing Gibbous
Feb 25
Full
Mar 4
Last Quarter
Mar 11
New
Mar 19
First Quarter

Hourly Weather History & Observations

Time (EST) Temp. Windchill Dew Point Humidity Pressure Visibility Wind Dir Wind Speed Gust Speed Precip Events Conditions
12:14 AM 22.3 °F 10.8 °F 14.9 °F 73% 30.29 in 10.0 mi North 11.5 mph 17.3 mph N/A   Overcast
12:35 AM 22.6 °F 12.6 °F 15.3 °F 73% 30.30 in 10.0 mi North 9.2 mph - N/A   Overcast
12:55 AM 22.8 °F 11.5 °F 15.6 °F 74% 30.30 in 10.0 mi North 11.5 mph 18.4 mph N/A   Overcast
1:14 AM 22.8 °F 11.5 °F 15.8 °F 74% 30.31 in 10.0 mi North 11.5 mph - N/A   Overcast
1:35 AM 22.8 °F 11.5 °F 16.2 °F 76% 30.31 in 10.0 mi North 11.5 mph - N/A   Overcast
1:55 AM 22.8 °F 12.2 °F 16.3 °F 76% 30.32 in 10.0 mi North 10.4 mph - N/A   Overcast
2:14 AM 22.8 °F 11.5 °F 16.7 °F 77% 30.32 in 10.0 mi North 11.5 mph 16.1 mph N/A   Overcast
2:35 AM 23.0 °F 14.7 °F 17.1 °F 78% 30.32 in 10.0 mi North 6.9 mph - N/A   Overcast
2:55 AM 23.4 °F 15.2 °F 16.7 °F 76% 30.32 in 10.0 mi North 6.9 mph - N/A   Overcast
3:15 AM 23.7 °F 16.6 °F 17.2 °F 76% 30.31 in 10.0 mi North 5.8 mph - N/A   Overcast
3:35 AM 24.1 °F 17.0 °F 17.8 °F 77% 30.32 in 10.0 mi NNE 5.8 mph 17.3 mph N/A   Overcast
3:55 AM 23.5 °F 19.1 °F 17.4 °F 77% 30.31 in 10.0 mi NE 3.5 mph - N/A   Overcast
4:15 AM 24.1 °F 14.4 °F 17.4 °F 76% 30.32 in 10.0 mi North 9.2 mph - N/A   Overcast
4:35 AM 25.3 °F 14.7 °F 18.5 °F 75% 30.32 in 10.0 mi North 11.5 mph - N/A   Overcast
4:55 AM 23.9 °F 15.0 °F 17.4 °F 76% 30.32 in 10.0 mi North 8.1 mph - N/A   Overcast
5:15 AM 23.9 °F 19.5 °F 17.4 °F 76% 30.32 in 10.0 mi NNE 3.5 mph - N/A   Overcast
5:35 AM 23.5 °F 17.6 °F 17.4 °F 77% 30.33 in 10.0 mi NE 4.6 mph - N/A   Overcast
5:54 AM 23.4 °F 18.9 °F 17.2 °F 77% 30.34 in 10.0 mi NNE 3.5 mph - N/A   Overcast
6:15 AM 23.2 °F 18.7 °F 16.9 °F 77% 30.36 in 10.0 mi NE 3.5 mph - N/A   Overcast
6:54 AM 23.0 °F 15.8 °F 16.7 °F 77% 30.37 in 10.0 mi NNE 5.8 mph - N/A   Overcast
7:15 AM 23.0 °F - 16.7 °F 77% 30.38 in 10.0 mi Calm Calm - N/A   Overcast
7:34 AM 22.8 °F 16.7 °F 16.7 °F 77% 30.37 in 10.0 mi NNE 4.6 mph - N/A   Overcast
7:55 AM 22.8 °F 14.5 °F 16.9 °F 78% 30.36 in 10.0 mi NE 6.9 mph - N/A   Overcast
8:15 AM 22.8 °F 13.6 °F 17.1 °F 79% 30.34 in 10.0 mi NE 8.1 mph - N/A   Overcast
8:34 AM 22.8 °F 13.6 °F 17.1 °F 79% 30.32 in 10.0 mi NE 8.1 mph - N/A   Overcast
8:55 AM 22.8 °F 12.9 °F 16.7 °F 77% 30.32 in 10.0 mi NE 9.2 mph 17.3 mph N/A   Overcast
9:14 AM 22.8 °F 12.2 °F 16.7 °F 77% 30.31 in 10.0 mi NE 10.4 mph 20.7 mph N/A   Overcast
9:35 AM 22.8 °F 13.6 °F 16.2 °F 76% 30.37 in 10.0 mi NNE 8.1 mph - N/A   Overcast
9:54 AM 22.8 °F 12.9 °F 15.8 °F 74% 30.36 in 10.0 mi ENE 9.2 mph - N/A   Overcast
10:15 AM 22.8 °F 14.5 °F 15.6 °F 74% 30.36 in 10.0 mi NE 6.9 mph - N/A   Overcast
10:35 AM 22.8 °F 15.5 °F 15.4 °F 73% 30.36 in 10.0 mi NE 5.8 mph - N/A   Overcast
10:54 AM 23.0 °F 13.9 °F 15.4 °F 73% 30.36 in 10.0 mi NE 8.1 mph - N/A   Overcast
11:15 AM 23.4 °F 12.8 °F 15.8 °F 73% 30.37 in 10.0 mi East 10.4 mph - N/A   Overcast
11:35 AM 23.4 °F 14.3 °F 15.6 °F 72% 30.37 in 10.0 mi NE 8.1 mph - N/A   Overcast
11:54 AM 23.5 °F 16.4 °F 15.4 °F 71% 30.37 in 10.0 mi ENE 5.8 mph - N/A   Overcast
12:15 PM 23.7 °F 15.6 °F 15.3 °F 70% 30.37 in 10.0 mi NNE 6.9 mph - N/A   Overcast
12:34 PM 23.4 °F 14.3 °F 15.3 °F 71% 30.38 in 10.0 mi ENE 8.1 mph - N/A   Overcast
12:55 PM 23.7 °F 14.7 °F 15.4 °F 71% 30.36 in 10.0 mi ENE 8.1 mph - N/A   Overcast
1:15 PM 23.4 °F 16.2 °F 14.9 °F 70% 30.37 in 10.0 mi NE 5.8 mph - N/A   Overcast
1:34 PM 23.5 °F 17.6 °F 15.1 °F 70% 30.36 in 10.0 mi North 4.6 mph - N/A   Overcast
1:55 PM 24.3 °F 18.4 °F 15.8 °F 70% 30.35 in 10.0 mi NE 4.6 mph - N/A   Overcast
2:15 PM 24.6 °F - 15.8 °F 69% 30.35 in 10.0 mi Calm Calm - N/A   Overcast
2:35 PM 25.3 °F 19.7 °F 16.5 °F 69% 30.32 in 10.0 mi NNE 4.6 mph - N/A   Overcast
2:55 PM 25.3 °F 17.6 °F 16.5 °F 69% 30.31 in 10.0 mi North 6.9 mph - N/A   Overcast
3:15 PM 25.3 °F 17.6 °F 16.7 °F 70% 30.30 in 10.0 mi NE 6.9 mph - N/A   Overcast
3:55 PM 25.3 °F 15.3 °F 16.9 °F 70% 30.29 in 10.0 mi East 10.4 mph - N/A   Overcast
4:15 PM 25.3 °F 16.7 °F 16.7 °F 70% 30.29 in 10.0 mi ENE 8.1 mph - N/A   Overcast
4:35 PM 23.9 °F 12.9 °F 15.8 °F 71% 30.30 in 10.0 mi East 11.5 mph - N/A   Overcast
4:55 PM 23.5 °F 13.0 °F 15.3 °F 71% 30.31 in 10.0 mi East 10.4 mph - N/A   Overcast
5:14 PM 23.4 °F 16.2 °F 14.9 °F 70% 30.31 in 10.0 mi ENE 5.8 mph - N/A   Overcast
5:35 PM 23.0 °F 17.0 °F 14.7 °F 71% 30.31 in 10.0 mi East 4.6 mph - N/A   Scattered Clouds
5:55 PM 22.8 °F 16.7 °F 14.7 °F 71% 30.32 in 10.0 mi East 4.6 mph - N/A   Clear
6:14 PM 22.8 °F 16.7 °F 14.9 °F 72% 30.30 in 10.0 mi NE 4.6 mph - N/A   Clear
6:35 PM 22.1 °F 14.7 °F 14.5 °F 73% 30.29 in 10.0 mi NNE 5.8 mph - N/A   Clear
6:55 PM 21.6 °F 15.3 °F 14.2 °F 73% 30.31 in 10.0 mi ENE 4.6 mph - N/A   Clear
7:14 PM 21.6 °F 15.3 °F 14.5 °F 74% 30.29 in 10.0 mi NE 4.6 mph - N/A   Clear
7:35 PM 20.8 °F 14.4 °F 14.0 °F 75% 30.30 in 10.0 mi NE 4.6 mph - N/A   Clear
7:55 PM 20.3 °F 12.5 °F 13.6 °F 75% 30.28 in 10.0 mi NE 5.8 mph - N/A   Clear
8:15 PM 20.3 °F 13.8 °F 13.6 °F 75% 30.28 in 10.0 mi ENE 4.6 mph - N/A   Clear
8:35 PM 20.3 °F 15.4 °F 13.8 °F 76% 30.28 in 10.0 mi NE 3.5 mph - N/A   Clear
8:55 PM 20.3 °F 13.8 °F 13.8 °F 76% 30.28 in 10.0 mi NNE 4.6 mph - N/A   Clear
9:15 PM 20.3 °F 15.4 °F 14.0 °F 77% 30.27 in 10.0 mi NNE 3.5 mph - N/A   Clear
9:35 PM 20.3 °F 13.8 °F 14.0 °F 77% 30.26 in 10.0 mi ENE 4.6 mph - N/A   Clear
9:55 PM 20.3 °F 13.8 °F 14.0 °F 77% 30.26 in 10.0 mi ENE 4.6 mph - N/A   Clear
10:15 PM 20.3 °F 12.5 °F 13.6 °F 75% 30.25 in 10.0 mi East 5.8 mph - N/A   Clear
10:35 PM 20.3 °F 11.5 °F 12.2 °F 71% 30.23 in 10.0 mi East 6.9 mph - N/A   Clear
10:55 PM 20.3 °F 9.8 °F 11.3 °F 68% 30.22 in 10.0 mi East 9.2 mph - N/A   Clear
11:15 PM 20.3 °F 9.0 °F 10.4 °F 66% 30.20 in 10.0 mi East 10.4 mph - N/A   Clear
11:35 PM 20.3 °F 5.7 °F 10.4 °F 66% 30.18 in 10.0 mi East 17.3 mph 24.2 mph N/A   Clear
11:55 PM 20.3 °F 6.6 °F 10.9 °F 67% 30.19 in 10.0 mi East 15.0 mph 19.6 mph N/A   Clear